Aeroporto :
LOGIN :

Iscrizione | Disclaimer

   EN    FR    IT 

 










Sommario :    VFR   VFR Marginale   IFR   IFR Intensivo   IFR Molto Intensivo
Visibilità : 
Base nubi : 
>= 8 km
>= 3000ft
5 / 8 km
1000 / 3000 ft
1500m / 5 km
500 / 1000 ft
800 / 1500m
200 / 500 ft
< 800m
< 200 ft
Simboli :   Temporali  Nebbia  Neve Forte  Precipitazioni Forti  Vento > 20 kt
SIGMETs :   Varie  Temporali  Ghiacco  Turbolenza  Onda orograficha  Ceneri Vulcaniche







- Altitudine del aeroporto : 290 ft
- Codice IATA : OSI


LDOS - Osijek

ULTIMO METAR :
  • 201600Z VRB02KT CAVOK 19/M02 Q1026

METARs OBSOLETI :
  • 201530Z 08007KT CAVOK 19/M01 Q1026
  • 201500Z 08009KT CAVOK 19/M02 Q1026
  • 201430Z VRB06KT CAVOK 20/M03 Q1026
  • 201400Z 36006KT 320V060 CAVOK 20/M01 Q1027
  • 201330Z 05009KT 020V090 CAVOK 19/M02 Q1027

TAF TAF LDOS
Valido dal 20 a 12 ore il 21 a 12 ore UTC


201125Z 2012/2112 04013KT CAVOK TX21/2014Z TN04/2104Z
BECMG 2015/2017 VRB02KT
Nessun NOTAM noto per questo aeroporto.



MetMap, La meteo Aeronautica in un colpo d'occhio ! - Copyright ORBIFLY Dicembre 2007 - Disclaimer

ORBIFLY MET'MAP TEAM :

Programmazione e sviluppo : Alexandra Zaïnal
Concezione e sviluppo : Baudouin d'Aumeries
Co-Programmazione e sviluppo : Marc-Olivier Méhu
Supporto tecnico e logistico : Manuel Goepfert
Aiuto per la traduzione : Arnaldo La Scala

Contatto : metmap@orbifly.com




FONTI E CREDITI :

   NOAA